createdAt,value
2017-07-23T00:00:37.091Z,1004.82
2017-07-23T00:01:37.073Z,1004.79
2017-07-23T00:02:37.059Z,1004.83
2017-07-23T00:03:37.049Z,1004.77
2017-07-23T00:04:37.040Z,1004.75
2017-07-23T00:05:37.019Z,1004.72
2017-07-23T00:06:37.009Z,1004.71
2017-07-23T00:07:36.996Z,1004.7
2017-07-23T00:08:36.988Z,1004.66
2017-07-23T00:09:36.970Z,1004.62
2017-07-23T00:10:36.960Z,1004.61
2017-07-23T00:11:36.947Z,1004.5
2017-07-23T00:12:36.929Z,1004.46
2017-07-23T00:13:36.919Z,1004.49
2017-07-23T00:14:36.908Z,1004.51
2017-07-23T00:15:36.890Z,1004.58
2017-07-23T00:16:36.903Z,1004.65
2017-07-23T00:17:36.869Z,1004.65
2017-07-23T00:18:36.849Z,1004.65
2017-07-23T00:19:36.850Z,1004.6
2017-07-23T00:20:36.827Z,1004.6
2017-07-23T00:21:36.811Z,1004.62
2017-07-23T00:22:36.799Z,1004.62
2017-07-23T00:23:36.790Z,1004.61
2017-07-23T00:24:36.774Z,1004.65
2017-07-23T00:25:36.756Z,1004.62
2017-07-23T00:26:36.747Z,1004.62
2017-07-23T00:27:36.735Z,1004.62
2017-07-23T00:28:36.719Z,1004.6
2017-07-23T00:29:36.707Z,1004.59
2017-07-23T00:30:36.694Z,1004.62
2017-07-23T00:31:36.681Z,1004.63
2017-07-23T00:32:36.665Z,1004.65
2017-07-23T00:33:36.660Z,1004.68
2017-07-23T00:34:36.645Z,1004.73
2017-07-23T00:35:36.636Z,1004.74
2017-07-23T00:36:36.614Z,1004.78
2017-07-23T00:37:36.600Z,1004.76
2017-07-23T00:38:36.588Z,1004.75
2017-07-23T00:39:36.581Z,1004.74
2017-07-23T00:40:36.564Z,1004.74
2017-07-23T00:41:36.546Z,1004.76
2017-07-23T00:42:36.538Z,1004.73
2017-07-23T00:43:36.519Z,1004.72
2017-07-23T00:44:36.506Z,1004.71
2017-07-23T00:45:36.495Z,1004.69
2017-07-23T00:46:36.483Z,1004.7
2017-07-23T00:47:36.468Z,1004.7
2017-07-23T00:48:36.451Z,1004.7
2017-07-23T00:49:36.445Z,1004.68
2017-07-23T00:50:36.428Z,1004.64
2017-07-23T00:51:36.420Z,1004.65
2017-07-23T00:52:36.401Z,1004.57
2017-07-23T00:53:36.389Z,1004.56
2017-07-23T00:54:36.372Z,1004.6
2017-07-23T00:55:36.362Z,1004.6
2017-07-23T00:56:36.356Z,1004.59
2017-07-23T00:57:36.336Z,1004.57
2017-07-23T00:58:36.328Z,1004.57
2017-07-23T00:59:36.309Z,1004.53
2017-07-23T01:00:36.296Z,1004.53
2017-07-23T01:01:36.284Z,1004.56
2017-07-23T01:02:36.274Z,1004.54
2017-07-23T01:03:36.258Z,1004.57
2017-07-23T01:04:36.249Z,1004.58
2017-07-23T01:05:36.232Z,1004.54
2017-07-23T01:06:36.219Z,1004.5
2017-07-23T01:07:36.203Z,1004.54
2017-07-23T01:08:36.195Z,1004.54
2017-07-23T01:09:36.174Z,1004.55
2017-07-23T01:10:36.268Z,1004.51
2017-07-23T01:11:36.146Z,1004.5
2017-07-23T01:12:36.190Z,1004.55
2017-07-23T01:13:36.125Z,1004.52
2017-07-23T01:14:36.109Z,1004.54
2017-07-23T01:15:36.093Z,1004.52
2017-07-23T01:16:36.087Z,1004.55
2017-07-23T01:17:36.070Z,1004.53
2017-07-23T01:18:36.056Z,1004.53
2017-07-23T01:19:36.045Z,1004.51
2017-07-23T01:20:36.033Z,1004.48
2017-07-23T01:21:36.017Z,1004.42
2017-07-23T01:22:36.006Z,1004.4
2017-07-23T01:23:35.985Z,1004.37
2017-07-23T01:24:36.026Z,1004.37
2017-07-23T01:25:35.960Z,1004.36
2017-07-23T01:26:35.946Z,1004.33
2017-07-23T01:27:35.931Z,1004.36
2017-07-23T01:28:35.921Z,1004.37
2017-07-23T01:29:35.908Z,1004.42
2017-07-23T01:30:35.892Z,1004.41
2017-07-23T01:31:35.880Z,1004.41
2017-07-23T01:32:35.869Z,1004.44
2017-07-23T01:33:35.851Z,1004.42
2017-07-23T01:34:35.841Z,1004.44
2017-07-23T01:35:35.822Z,1004.41
2017-07-23T01:36:35.811Z,1004.4
2017-07-23T01:37:35.800Z,1004.39
2017-07-23T01:38:35.789Z,1004.39
2017-07-23T01:39:35.771Z,1004.39
2017-07-23T01:40:35.756Z,1004.41
2017-07-23T01:41:35.744Z,1004.41
2017-07-23T01:42:35.728Z,1004.38
2017-07-23T01:43:35.717Z,1004.42
2017-07-23T01:44:35.702Z,1004.44
2017-07-23T01:45:35.687Z,1004.48
2017-07-23T01:46:35.679Z,1004.47
2017-07-23T01:47:35.659Z,1004.52
2017-07-23T01:48:35.647Z,1004.44
2017-07-23T01:49:35.634Z,1004.49
2017-07-23T01:50:35.620Z,1004.46
2017-07-23T01:51:35.610Z,1004.5
2017-07-23T01:52:35.601Z,1004.58
2017-07-23T01:53:35.580Z,1004.6
2017-07-23T01:54:35.567Z,1004.56
2017-07-23T01:55:35.549Z,1004.51
2017-07-23T01:56:35.539Z,1004.55
2017-07-23T01:57:35.530Z,1004.54
2017-07-23T01:58:35.509Z,1004.5
2017-07-23T01:59:35.503Z,1004.49
2017-07-23T02:00:35.480Z,1004.43
2017-07-23T02:01:35.470Z,1004.39
2017-07-23T02:02:35.456Z,1004.31
2017-07-23T02:03:35.441Z,1004.34
2017-07-23T02:04:35.427Z,1004.28
2017-07-23T02:05:35.414Z,1004.29
2017-07-23T02:06:35.400Z,1004.27
2017-07-23T02:07:35.382Z,1004.22
2017-07-23T02:08:35.373Z,1004.2
2017-07-23T02:09:35.358Z,1004.14
2017-07-23T02:10:35.346Z,1004.07
2017-07-23T02:11:35.329Z,1004.01
2017-07-23T02:12:35.318Z,1003.99
2017-07-23T02:13:35.312Z,1004.03
2017-07-23T02:14:35.287Z,1004.1
2017-07-23T02:15:35.277Z,1004.11
2017-07-23T02:16:35.261Z,1004.1
2017-07-23T02:17:35.249Z,1004.09
2017-07-23T02:18:35.239Z,1004.12
2017-07-23T02:19:35.221Z,1004.15
2017-07-23T02:20:35.209Z,1004.15
2017-07-23T02:21:35.191Z,1004.17
2017-07-23T02:22:35.180Z,1004.15
2017-07-23T02:23:35.164Z,1004.12
2017-07-23T02:24:35.150Z,1004.09
2017-07-23T02:25:35.144Z,1004.04
2017-07-23T02:26:35.122Z,1004.01
2017-07-23T02:27:35.113Z,1004.02
2017-07-23T02:28:35.096Z,1004.05
2017-07-23T02:29:35.079Z,1004.08
2017-07-23T02:30:35.073Z,1004.05
2017-07-23T02:31:35.057Z,1004.16
2017-07-23T02:32:35.048Z,1004.22
2017-07-23T02:33:35.030Z,1004.2
2017-07-23T02:34:35.019Z,1004.17
2017-07-23T02:35:35.000Z,1004.17
2017-07-23T02:36:34.987Z,1004.21
2017-07-23T02:37:34.972Z,1004.23
2017-07-23T02:38:34.960Z,1004.23
2017-07-23T02:39:34.946Z,1004.21
2017-07-23T02:40:34.942Z,1004.25
2017-07-23T02:41:34.915Z,1004.25
2017-07-23T02:42:34.900Z,1004.25
2017-07-23T02:43:34.891Z,1004.19
2017-07-23T02:44:34.877Z,1004.11
2017-07-23T02:45:34.859Z,1004.09
2017-07-23T02:46:34.849Z,1004.01
2017-07-23T02:47:34.830Z,1003.99
2017-07-23T02:48:34.822Z,1003.98
2017-07-23T02:49:34.806Z,1003.91
2017-07-23T02:50:34.795Z,1003.95
2017-07-23T02:51:34.776Z,1003.99
2017-07-23T02:52:34.759Z,1004.03
2017-07-23T02:53:34.750Z,1003.98
2017-07-23T02:54:34.741Z,1003.96
2017-07-23T02:55:34.720Z,1003.92
2017-07-23T02:56:34.710Z,1003.88
2017-07-23T02:57:34.695Z,1003.9
2017-07-23T02:58:34.682Z,1003.91
2017-07-23T02:59:34.662Z,1003.92
2017-07-23T03:00:34.650Z,1003.9
2017-07-23T03:01:34.638Z,1003.91
2017-07-23T03:02:34.619Z,1003.95
2017-07-23T03:03:34.609Z,1003.92
2017-07-23T03:04:34.599Z,1003.96
2017-07-23T03:05:34.581Z,1003.96
2017-07-23T03:06:34.569Z,1004.01
2017-07-23T03:07:34.553Z,1004.03
2017-07-23T03:08:34.539Z,1004.07
2017-07-23T03:09:34.527Z,1004.09
2017-07-23T03:10:34.509Z,1004.16
2017-07-23T03:11:34.493Z,1004.16
2017-07-23T03:12:34.480Z,1004.21
2017-07-23T03:13:34.468Z,1004.2
2017-07-23T03:14:34.459Z,1004.2
2017-07-23T03:15:34.436Z,1004.26
2017-07-23T03:16:34.427Z,1004.29
2017-07-23T03:17:34.413Z,1004.34
2017-07-23T03:18:34.399Z,1004.34
2017-07-23T03:19:34.383Z,1004.4
2017-07-23T03:20:34.367Z,1004.39
2017-07-23T03:21:34.351Z,1004.41
2017-07-23T03:22:34.338Z,1004.37
2017-07-23T03:23:34.330Z,1004.36
2017-07-23T03:24:34.310Z,1004.43
2017-07-23T03:25:34.298Z,1004.44
2017-07-23T03:26:34.284Z,1004.44
2017-07-23T03:27:34.268Z,1004.48
2017-07-23T03:28:34.260Z,1004.49
2017-07-23T03:29:34.248Z,1004.55
2017-07-23T03:30:34.227Z,1004.54
2017-07-23T03:31:34.215Z,1004.51
2017-07-23T03:32:34.195Z,1004.57
2017-07-23T03:33:34.189Z,1004.53
2017-07-23T03:34:34.168Z,1004.55
2017-07-23T03:35:34.157Z,1004.57
2017-07-23T03:36:34.138Z,1004.55
2017-07-23T03:37:34.128Z,1004.56
2017-07-23T03:38:34.121Z,1004.55
2017-07-23T03:39:34.099Z,1004.58
2017-07-23T03:40:34.089Z,1004.57
2017-07-23T03:41:34.069Z,1004.54
2017-07-23T03:42:34.058Z,1004.52
2017-07-23T03:43:34.047Z,1004.55
2017-07-23T03:44:34.027Z,1004.52
2017-07-23T03:45:34.018Z,1004.46
2017-07-23T03:46:34.001Z,1004.47
2017-07-23T03:47:33.985Z,1004.46
2017-07-23T03:48:33.969Z,1004.49
2017-07-23T03:49:33.959Z,1004.5
2017-07-23T03:50:33.940Z,1004.5
2017-07-23T03:51:33.925Z,1004.56
2017-07-23T03:52:33.921Z,1004.57
2017-07-23T03:53:33.899Z,1004.56
2017-07-23T03:54:33.899Z,1004.54
2017-07-23T03:55:33.868Z,1004.55
2017-07-23T03:56:33.860Z,1004.55
2017-07-23T03:57:33.849Z,1004.58
2017-07-23T03:58:33.830Z,1004.61
2017-07-23T03:59:33.819Z,1004.61
2017-07-23T04:00:33.812Z,1004.69
2017-07-23T04:01:33.789Z,1004.7
2017-07-23T04:02:33.779Z,1004.74
2017-07-23T04:03:33.758Z,1004.74
2017-07-23T04:04:33.746Z,1004.79
2017-07-23T04:05:33.726Z,1004.79
2017-07-23T04:06:33.715Z,1004.78
2017-07-23T04:07:33.698Z,1004.83
2017-07-23T04:08:33.683Z,1004.82
2017-07-23T04:09:33.680Z,1004.82
2017-07-23T04:10:33.667Z,1004.88
2017-07-23T04:11:33.646Z,1004.87
2017-07-23T04:12:33.632Z,1004.89
2017-07-23T04:13:33.621Z,1004.93
2017-07-23T04:14:33.600Z,1004.92
2017-07-23T04:15:33.604Z,1004.9
2017-07-23T04:16:33.570Z,1004.98
2017-07-23T04:17:33.557Z,1004.97
2017-07-23T04:18:33.548Z,1005
2017-07-23T04:19:33.528Z,1005.04
2017-07-23T04:20:33.521Z,1005.07
2017-07-23T04:21:33.499Z,1005.05
2017-07-23T04:22:33.485Z,1005.05
2017-07-23T04:23:33.470Z,1005.03
2017-07-23T04:24:33.454Z,1005.05
2017-07-23T04:25:33.437Z,1005.04
2017-07-23T04:26:33.422Z,1005.04
2017-07-23T04:27:33.407Z,1005.03
2017-07-23T04:28:33.397Z,1005
2017-07-23T04:29:33.380Z,1005.03
2017-07-23T04:30:33.366Z,1005.02
2017-07-23T04:31:33.354Z,1005.02
2017-07-23T04:32:33.339Z,1005.06
2017-07-23T04:33:33.323Z,1005.03
2017-07-23T04:34:33.308Z,1005.1
2017-07-23T04:35:33.297Z,1005.14
2017-07-23T04:36:33.288Z,1005.16
2017-07-23T04:37:33.273Z,1005.16
2017-07-23T04:38:33.251Z,1005.19
2017-07-23T04:39:33.238Z,1005.22
2017-07-23T04:40:33.223Z,1005.24
2017-07-23T04:41:33.210Z,1005.2
2017-07-23T04:42:33.193Z,1005.18
2017-07-23T04:43:33.179Z,1005.2
2017-07-23T04:44:33.165Z,1005.24
2017-07-23T04:45:33.149Z,1005.23
2017-07-23T04:46:33.135Z,1005.22
2017-07-23T04:47:33.121Z,1005.2
2017-07-23T04:48:33.109Z,1005.27
2017-07-23T04:49:33.093Z,1005.23
2017-07-23T04:50:33.079Z,1005.23
2017-07-23T04:51:33.068Z,1005.24
2017-07-23T04:52:33.050Z,1005.2
2017-07-23T04:53:33.040Z,1005.19
2017-07-23T04:54:33.018Z,1005.2
2017-07-23T04:55:33.004Z,1005.16
2017-07-23T04:56:32.988Z,1005.14
2017-07-23T04:57:32.981Z,1005.14
2017-07-23T04:58:32.959Z,1005.16
2017-07-23T04:59:32.943Z,1005.09
2017-07-23T05:00:32.938Z,1005.05
2017-07-23T05:01:32.917Z,1005.03
2017-07-23T05:02:32.908Z,1005.07
2017-07-23T05:03:32.889Z,1005.07
2017-07-23T05:04:32.879Z,1005.12
2017-07-23T05:05:32.856Z,1005.19
2017-07-23T05:06:32.849Z,1005.19
2017-07-23T05:07:32.827Z,1005.27
2017-07-23T05:08:32.816Z,1005.31
2017-07-23T05:09:32.798Z,1005.32
2017-07-23T05:10:32.780Z,1005.3
2017-07-23T05:11:32.769Z,1005.3
2017-07-23T05:12:32.756Z,1005.29
2017-07-23T05:13:32.740Z,1005.3
2017-07-23T05:14:32.725Z,1005.32
2017-07-23T05:15:32.707Z,1005.34
2017-07-23T05:16:32.693Z,1005.32
2017-07-23T05:17:32.679Z,1005.36
2017-07-23T05:18:32.668Z,1005.32
2017-07-23T05:19:32.653Z,1005.32
2017-07-23T05:20:32.639Z,1005.34
2017-07-23T05:21:32.622Z,1005.31
2017-07-23T05:22:32.609Z,1005.34
2017-07-23T05:23:32.600Z,1005.39
2017-07-23T05:24:32.578Z,1005.39
2017-07-23T05:25:32.564Z,1005.44
2017-07-23T05:26:32.550Z,1005.45
2017-07-23T05:27:32.539Z,1005.42
2017-07-23T05:28:32.520Z,1005.45
2017-07-23T05:29:32.506Z,1005.47
2017-07-23T05:30:32.488Z,1005.47
2017-07-23T05:31:32.474Z,1005.5
2017-07-23T05:32:32.466Z,1005.46
2017-07-23T05:33:32.459Z,1005.55
2017-07-23T05:34:32.440Z,1005.5
2017-07-23T05:35:32.419Z,1005.52
2017-07-23T05:36:32.410Z,1005.49
2017-07-23T05:37:32.388Z,1005.49
2017-07-23T05:38:32.380Z,1005.49
2017-07-23T05:39:32.362Z,1005.45
2017-07-23T05:40:32.350Z,1005.5
2017-07-23T05:41:32.335Z,1005.52
2017-07-23T05:42:32.318Z,1005.54
2017-07-23T05:43:32.360Z,1005.5
2017-07-23T05:44:32.287Z,1005.53
2017-07-23T05:45:32.279Z,1005.54
2017-07-23T05:46:32.259Z,1005.53
2017-07-23T05:47:32.244Z,1005.53
2017-07-23T05:48:32.228Z,1005.55
2017-07-23T05:49:32.321Z,1005.5
2017-07-23T05:50:32.195Z,1005.57
2017-07-23T05:51:32.189Z,1005.63
2017-07-23T05:52:32.171Z,1005.56
2017-07-23T05:53:32.208Z,1005.6
2017-07-23T05:54:32.143Z,1005.6
2017-07-23T05:55:32.180Z,1005.59
2017-07-23T05:56:32.118Z,1005.59
2017-07-23T05:57:32.108Z,1005.59
2017-07-23T05:58:32.102Z,1005.57
2017-07-23T05:59:32.070Z,1005.57
2017-07-23T06:00:32.058Z,1005.6
2017-07-23T06:01:32.092Z,1005.6
2017-07-23T06:02:32.026Z,1005.59
2017-07-23T06:03:32.018Z,1005.6
2017-07-23T06:04:31.999Z,1005.61
2017-07-23T06:05:31.989Z,1005.61
2017-07-23T06:06:31.969Z,1005.66
2017-07-23T06:07:31.959Z,1005.63
2017-07-23T06:08:31.939Z,1005.66
2017-07-23T06:09:31.929Z,1005.68
2017-07-23T06:10:31.911Z,1005.66
2017-07-23T06:11:31.898Z,1005.67
2017-07-23T06:12:31.879Z,1005.77
2017-07-23T06:13:31.868Z,1005.59
2017-07-23T06:14:31.855Z,1005.72
2017-07-23T06:15:31.839Z,1005.67
2017-07-23T06:16:31.828Z,1005.65
2017-07-23T06:17:31.810Z,1005.73
2017-07-23T06:18:31.797Z,1005.71
2017-07-23T06:19:31.783Z,1005.69
2017-07-23T06:20:31.770Z,1005.69
2017-07-23T06:21:31.755Z,1005.73
2017-07-23T06:22:31.739Z,1005.65
2017-07-23T06:23:31.726Z,1005.74
2017-07-23T06:24:31.718Z,1005.72
2017-07-23T06:25:31.695Z,1005.73
2017-07-23T06:26:31.687Z,1005.77
2017-07-23T06:27:31.669Z,1005.82
2017-07-23T06:28:31.653Z,1005.78
2017-07-23T06:29:31.639Z,1005.84
2017-07-23T06:30:31.624Z,1005.85
2017-07-23T06:31:31.609Z,1005.87
2017-07-23T06:32:31.598Z,1005.91
2017-07-23T06:33:31.585Z,1005.9
2017-07-23T06:34:31.570Z,1005.86
2017-07-23T06:35:31.551Z,1005.87
2017-07-23T06:36:31.540Z,1005.89
2017-07-23T06:37:31.528Z,1005.88
2017-07-23T06:38:31.513Z,1005.91
2017-07-23T06:39:31.497Z,1005.88
2017-07-23T06:40:31.481Z,1005.91
2017-07-23T06:41:31.465Z,1006.02
2017-07-23T06:42:31.458Z,1005.98
2017-07-23T06:43:31.442Z,1005.92
2017-07-23T06:44:31.428Z,1005.91
2017-07-23T06:45:31.411Z,1005.96
2017-07-23T06:46:31.407Z,1005.95
2017-07-23T06:47:31.389Z,1005.86
2017-07-23T06:48:31.373Z,1005.93
2017-07-23T06:49:31.368Z,1005.94
2017-07-23T06:50:31.337Z,1006.01
2017-07-23T06:51:31.325Z,1005.92
2017-07-23T06:52:31.312Z,1005.93
2017-07-23T06:53:31.299Z,1005.97
2017-07-23T06:54:31.285Z,1005.94
2017-07-23T06:55:31.270Z,1006.01
2017-07-23T06:56:31.258Z,1006
2017-07-23T06:57:31.240Z,1006
2017-07-23T06:58:31.223Z,1005.99
2017-07-23T06:59:31.208Z,1006.03
2017-07-23T07:00:31.198Z,1006.02
2017-07-23T07:01:31.184Z,1006.04
2017-07-23T07:02:31.170Z,1006
2017-07-23T07:03:31.156Z,1005.97
2017-07-23T07:04:31.136Z,1006.02
2017-07-23T07:05:31.131Z,1006.06
2017-07-23T07:06:31.108Z,1006.07
2017-07-23T07:07:31.099Z,1006.1
2017-07-23T07:08:31.079Z,1006.09
2017-07-23T07:09:31.066Z,1006.11
2017-07-23T07:10:31.053Z,1006.08
2017-07-23T07:11:31.035Z,1006.1
2017-07-23T07:12:31.021Z,1006.03
2017-07-23T07:13:31.008Z,1006.07
2017-07-23T07:14:30.997Z,1006.12
2017-07-23T07:15:30.988Z,1006.07
2017-07-23T07:16:30.966Z,1006.19
2017-07-23T07:17:30.951Z,1006.24
2017-07-23T07:18:30.937Z,1006.12
2017-07-23T07:19:30.926Z,1006.14
2017-07-23T07:20:30.909Z,1006.15
2017-07-23T07:21:30.898Z,1006.17
2017-07-23T07:22:30.887Z,1006.09
2017-07-23T07:23:30.868Z,1006.1
2017-07-23T07:24:30.857Z,1006.07
2017-07-23T07:25:30.837Z,1006.08
2017-07-23T07:26:30.858Z,1006.1
2017-07-23T07:27:30.810Z,1006.1
2017-07-23T07:28:30.798Z,1006.08
2017-07-23T07:29:30.782Z,1006.13
2017-07-23T07:30:30.868Z,1006.15
2017-07-23T07:31:30.760Z,1006.11
2017-07-23T07:32:30.839Z,1006.14
2017-07-23T07:33:30.729Z,1006.16
2017-07-23T07:34:30.715Z,1006.15
2017-07-23T07:35:30.704Z,1006.17
2017-07-23T07:36:30.688Z,1006.13
2017-07-23T07:37:30.678Z,1006.21
2017-07-23T07:38:30.669Z,1006.21
2017-07-23T07:39:30.653Z,1006.21
2017-07-23T07:40:30.640Z,1006.2
2017-07-23T07:41:30.624Z,1006.19
2017-07-23T07:42:30.613Z,1006.23
2017-07-23T07:43:30.599Z,1006.22
2017-07-23T07:44:30.586Z,1006.21
2017-07-23T07:45:30.568Z,1006.22
2017-07-23T07:46:30.558Z,1006.15
2017-07-23T07:47:30.559Z,1006.19
2017-07-23T07:48:30.584Z,1006.36
2017-07-23T07:49:30.520Z,1006.28
2017-07-23T07:50:30.509Z,1006.29
2017-07-23T07:51:30.497Z,1006.23
2017-07-23T07:52:30.487Z,1006.29
2017-07-23T07:53:30.467Z,1006.3
2017-07-23T07:54:30.459Z,1006.2
2017-07-23T07:55:30.447Z,1006.31
2017-07-23T07:56:30.437Z,1006.26
2017-07-23T07:57:30.417Z,1006.3
2017-07-23T07:58:30.404Z,1006.43
2017-07-23T07:59:30.398Z,1006.27
2017-07-23T08:00:30.387Z,1006.26
2017-07-23T08:01:30.371Z,1006.32
2017-07-23T08:02:30.358Z,1006.33
2017-07-23T08:03:30.357Z,1006.31
2017-07-23T08:04:30.342Z,1006.31
2017-07-23T08:05:30.317Z,1006.31
2017-07-23T08:06:30.307Z,1006.31
2017-07-23T08:07:30.310Z,1006.38
2017-07-23T08:08:30.283Z,1006.3
2017-07-23T08:09:30.271Z,1006.31
2017-07-23T08:10:30.258Z,1006.43
2017-07-23T08:11:30.247Z,1006.46
2017-07-23T08:12:30.236Z,1006.33
2017-07-23T08:13:30.225Z,1006.42
2017-07-23T08:14:30.208Z,1006.43
2017-07-23T08:15:30.200Z,1006.35
2017-07-23T08:16:30.187Z,1006.41
2017-07-23T08:17:30.186Z,1006.41
2017-07-23T08:18:30.167Z,1006.47
2017-07-23T08:19:30.149Z,1006.36
2017-07-23T08:20:30.137Z,1006.39
2017-07-23T08:21:30.123Z,1006.4
2017-07-23T08:22:30.110Z,1006.38
2017-07-23T08:23:30.098Z,1006.41
2017-07-23T08:24:30.089Z,1006.39
2017-07-23T08:25:30.072Z,1006.45
2017-07-23T08:26:30.057Z,1006.44
2017-07-23T08:27:30.050Z,1006.45
2017-07-23T08:28:30.049Z,1006.86
2017-07-23T08:29:30.029Z,1006.96
2017-07-23T08:30:30.021Z,1006.99
2017-07-23T08:31:30.009Z,1006.93
2017-07-23T08:32:29.988Z,1006.91
2017-07-23T08:33:29.978Z,1006.97
2017-07-23T08:34:29.960Z,1007.02
2017-07-23T08:35:29.949Z,1006.94
2017-07-23T08:36:29.937Z,1006.92
2017-07-23T08:37:29.926Z,1006.91
2017-07-23T08:38:29.922Z,1006.97
2017-07-23T08:39:29.909Z,1006.92
2017-07-23T08:40:29.893Z,1006.93
2017-07-23T08:41:29.878Z,1007.02
2017-07-23T08:42:29.869Z,1006.93
2017-07-23T08:43:29.858Z,1006.95
2017-07-23T08:44:29.849Z,1006.96
2017-07-23T08:45:29.837Z,1007.01
2017-07-23T08:46:29.829Z,1006.98
2017-07-23T08:47:29.819Z,1007.05
2017-07-23T08:48:29.808Z,1007.04
2017-07-23T08:49:29.798Z,1007.13
2017-07-23T08:50:29.789Z,1007
2017-07-23T08:51:29.780Z,1007.05
2017-07-23T08:52:29.779Z,1006.95
2017-07-23T08:53:29.762Z,1006.7
2017-07-23T08:54:29.759Z,1006.95
2017-07-23T08:55:29.751Z,1007.01
2017-07-23T08:56:29.740Z,1007
2017-07-23T08:57:29.737Z,1006.73
2017-07-23T08:58:29.731Z,1006.73
2017-07-23T08:59:29.721Z,1006.76
2017-07-23T09:00:29.709Z,1006.74
2017-07-23T09:01:29.698Z,1006.71
2017-07-23T09:02:29.690Z,1006.84
2017-07-23T09:03:29.678Z,1006.78
2017-07-23T09:04:29.678Z,1006.73
2017-07-23T09:05:29.665Z,1006.78
2017-07-23T09:06:29.655Z,1006.77
2017-07-23T09:07:29.644Z,1006.88
2017-07-23T09:08:29.640Z,1006.78
2017-07-23T09:09:29.626Z,1007.16
2017-07-23T09:10:29.624Z,1007.14
2017-07-23T09:11:29.604Z,1007.09
2017-07-23T09:12:29.594Z,1006.86
2017-07-23T09:13:29.586Z,1007.08
2017-07-23T09:14:29.580Z,1007.02
2017-07-23T09:15:29.569Z,1006.91
2017-07-23T09:16:29.563Z,1006.87
2017-07-23T09:17:29.560Z,1006.89
2017-07-23T09:18:29.547Z,1006.87
2017-07-23T09:19:29.537Z,1006.9
2017-07-23T09:20:29.530Z,1006.89
2017-07-23T09:21:29.518Z,1006.94
2017-07-23T09:22:29.513Z,1006.88
2017-07-23T09:23:29.502Z,1006.81
2017-07-23T09:24:29.499Z,1006.82
2017-07-23T09:25:29.486Z,1006.85
2017-07-23T09:26:29.471Z,1007.03
2017-07-23T09:27:29.471Z,1007.03
2017-07-23T09:28:29.468Z,1006.94
2017-07-23T09:29:29.449Z,1006.93
2017-07-23T09:30:29.437Z,1006.85
2017-07-23T09:31:29.428Z,1006.86
2017-07-23T09:32:29.415Z,1006.88
2017-07-23T09:33:29.408Z,1006.86
2017-07-23T09:34:29.398Z,1006.81
2017-07-23T09:35:29.390Z,1006.84
2017-07-23T09:36:29.379Z,1006.88
2017-07-23T09:37:29.379Z,1006.83
2017-07-23T09:38:29.356Z,1006.9
2017-07-23T09:39:29.356Z,1006.89
2017-07-23T09:40:29.340Z,1006.88
2017-07-23T09:41:29.326Z,1006.93
2017-07-23T09:42:29.317Z,1006.95
2017-07-23T09:43:29.328Z,1006.99
2017-07-23T09:44:29.289Z,1006.94
2017-07-23T09:45:29.280Z,1006.99
2017-07-23T09:46:29.267Z,1006.97
2017-07-23T09:47:29.270Z,1006.97
2017-07-23T09:48:29.242Z,1006.96
2017-07-23T09:49:29.240Z,1007
2017-07-23T09:50:29.220Z,1007.02
2017-07-23T09:51:29.209Z,1007
2017-07-23T09:52:29.199Z,1007.01
2017-07-23T09:53:29.183Z,1007.02
2017-07-23T09:54:29.178Z,1007
2017-07-23T09:55:29.159Z,1006.95
2017-07-23T09:56:29.149Z,1006.98
2017-07-23T09:57:29.137Z,1006.92
2017-07-23T09:58:29.131Z,1006.93
2017-07-23T09:59:29.116Z,1006.94
2017-07-23T10:00:29.103Z,1006.94
2017-07-23T10:01:29.089Z,1006.93
2017-07-23T10:02:29.071Z,1006.95
2017-07-23T10:03:29.068Z,1006.93
2017-07-23T10:04:29.048Z,1006.89
2017-07-23T10:05:29.035Z,1006.89
2017-07-23T10:06:29.036Z,1006.86
2017-07-23T10:07:29.021Z,1006.94
2017-07-23T10:08:29.007Z,1006.93
2017-07-23T10:09:28.990Z,1007.01
2017-07-23T10:10:28.983Z,1006.94
2017-07-23T10:11:28.971Z,1007
2017-07-23T10:12:28.960Z,1006.98
2017-07-23T10:13:28.945Z,1006.87
2017-07-23T10:14:28.942Z,1006.81
2017-07-23T10:15:28.931Z,1006.83
2017-07-23T10:16:28.920Z,1006.79
2017-07-23T10:17:28.902Z,1006.73
2017-07-23T10:18:28.900Z,1006.78
2017-07-23T10:19:28.893Z,1006.76
2017-07-23T10:20:28.883Z,1006.79
2017-07-23T10:21:28.872Z,1006.81
2017-07-23T10:22:28.857Z,1006.78
2017-07-23T10:23:28.851Z,1006.86
2017-07-23T10:24:28.831Z,1006.85
2017-07-23T10:25:28.820Z,1006.79
2017-07-23T10:26:28.814Z,1006.83
2017-07-23T10:27:28.799Z,1006.78
2017-07-23T10:28:28.793Z,1006.8
2017-07-23T10:29:28.813Z,1006.86
2017-07-23T10:30:28.768Z,1006.81
2017-07-23T10:31:28.804Z,1006.82
2017-07-23T10:32:28.742Z,1006.84
2017-07-23T10:33:28.781Z,1006.79
2017-07-23T10:34:28.723Z,1006.79
2017-07-23T10:35:28.718Z,1006.79
2017-07-23T10:36:28.698Z,1006.84
2017-07-23T10:37:28.742Z,1006.82
2017-07-23T10:38:28.672Z,1006.74
2017-07-23T10:39:28.664Z,1006.8
2017-07-23T10:40:28.645Z,1006.81
2017-07-23T10:41:28.634Z,1006.82
2017-07-23T10:42:28.621Z,1006.83
2017-07-23T10:43:28.610Z,1006.92
2017-07-23T10:44:28.608Z,1006.82
2017-07-23T10:45:28.589Z,1006.87
2017-07-23T10:46:28.570Z,1006.86
2017-07-23T10:47:28.561Z,1006.81
2017-07-23T10:48:28.542Z,1006.79
2017-07-23T10:49:28.531Z,1006.82
2017-07-23T10:50:28.521Z,1006.79
2017-07-23T10:51:28.509Z,1006.81
2017-07-23T10:52:28.502Z,1006.83
2017-07-23T10:53:28.480Z,1006.77
2017-07-23T10:54:28.471Z,1006.82
2017-07-23T10:55:28.462Z,1006.85
2017-07-23T10:56:28.447Z,1006.81
2017-07-23T10:57:28.439Z,1006.8
2017-07-23T10:58:28.424Z,1006.91
2017-07-23T10:59:28.412Z,1006.89
2017-07-23T11:00:28.400Z,1006.88
2017-07-23T11:01:28.381Z,1006.86
2017-07-23T11:02:28.371Z,1006.87
2017-07-23T11:03:28.362Z,1006.8
2017-07-23T11:04:28.342Z,1006.83
2017-07-23T11:05:28.341Z,1006.84
2017-07-23T11:06:28.331Z,1006.83
2017-07-23T11:07:28.309Z,1006.84
2017-07-23T11:08:28.298Z,1006.84
2017-07-23T11:09:28.309Z,1006.85
2017-07-23T11:10:28.270Z,1006.92
2017-07-23T11:11:28.261Z,1006.84
2017-07-23T11:12:28.252Z,1006.9
2017-07-23T11:13:28.238Z,1006.79
2017-07-23T11:14:28.226Z,1006.79
2017-07-23T11:15:28.227Z,1006.74
2017-07-23T11:16:28.204Z,1006.77
2017-07-23T11:17:28.196Z,1006.74
2017-07-23T11:18:28.181Z,1006.77
2017-07-23T11:19:28.172Z,1006.78
2017-07-23T11:20:28.159Z,1006.87
2017-07-23T11:21:28.149Z,1006.87
2017-07-23T11:22:28.132Z,1006.83
2017-07-23T11:23:28.129Z,1006.78
2017-07-23T11:24:28.118Z,1006.91
2017-07-23T11:25:28.098Z,1006.89
2017-07-23T11:26:28.091Z,1006.83
2017-07-23T11:27:28.073Z,1006.89
2017-07-23T11:28:28.074Z,1006.85
2017-07-23T11:29:28.050Z,1006.88
2017-07-23T11:30:28.037Z,1006.79
2017-07-23T11:31:28.027Z,1006.82
2017-07-23T11:32:28.012Z,1006.81
2017-07-23T11:33:28.008Z,1006.83
2017-07-23T11:34:27.989Z,1006.85
2017-07-23T11:35:27.985Z,1006.92
2017-07-23T11:36:27.965Z,1006.92
2017-07-23T11:37:27.960Z,1006.92
2017-07-23T11:38:27.943Z,1006.97
2017-07-23T11:39:27.931Z,1006.99
2017-07-23T11:40:27.919Z,1006.89
2017-07-23T11:41:27.903Z,1006.95
2017-07-23T11:42:27.896Z,1006.93
2017-07-23T11:43:27.887Z,1006.93
2017-07-23T11:44:27.878Z,1006.98
2017-07-23T11:45:27.860Z,1006.91
2017-07-23T11:46:27.849Z,1006.94
2017-07-23T11:47:27.840Z,1006.94
2017-07-23T11:48:27.825Z,1007.04
2017-07-23T11:49:27.819Z,1007.02
2017-07-23T11:50:27.810Z,1006.99
2017-07-23T11:51:27.798Z,1007.01
2017-07-23T11:52:27.781Z,1007.02
2017-07-23T11:53:27.771Z,1007
2017-07-23T11:54:27.759Z,1007.01
2017-07-23T11:55:27.749Z,1007.01
2017-07-23T11:56:27.742Z,1006.93
2017-07-23T11:57:27.733Z,1006.96
2017-07-23T11:58:27.720Z,1006.92
2017-07-23T11:59:27.703Z,1006.82
2017-07-23T12:00:27.705Z,1006.91
2017-07-23T12:01:27.689Z,1006.86
2017-07-23T12:02:27.679Z,1006.95
2017-07-23T12:03:27.660Z,1006.89
2017-07-23T12:04:27.648Z,1006.83
2017-07-23T12:05:27.638Z,1006.82
2017-07-23T12:06:27.630Z,1006.84
2017-07-23T12:07:27.621Z,1006.8
2017-07-23T12:08:27.607Z,1006.84
2017-07-23T12:09:27.605Z,1006.87